Time;durP1;ratioP1;P1;durP2;ratioP2;P2;SDS_P1;SDS_P2;PMS_P1;PMS_P2;Temp;Humidity;BMP_temperature;BMP_pressure;BME280_temperature;BME280_humidity;BME280_pressure;Samples;Min_cycle;Max_cycle;Signal;HPM_P1;HPM_P2
2022/01/05 00:01:14;;;;;;;29.17;15.73;;;;;;;;;;5097243;28;20541;-69
2022/01/05 00:03:40;;;;;;;36.33;20.17;;;;;;;;;;5096837;28;20391;-68
2022/01/05 00:06:06;;;;;;;37.05;18.90;;;;;;;;;;5097112;28;20078;-68
2022/01/05 00:08:32;;;;;;;26.50;14.40;;;;;;;;;;5097142;28;20035;-68
2022/01/05 00:10:58;;;;;;;21.33;12.73;;;;;;;;;;5096641;28;20028;-68
2022/01/05 00:13:25;;;;;;;27.42;13.75;;;;;;;;;;5097020;28;20024;-69
2022/01/05 00:15:51;;;;;;;23.52;13.57;;;;;;;;;;5096515;28;20036;-69
2022/01/05 00:18:17;;;;;;;25.00;12.93;;;;;;;;;;5096951;28;20027;-69
2022/01/05 00:20:44;;;;;;;22.15;13.35;;;;;;;;;;5096967;28;20024;-69
2022/01/05 00:23:10;;;;;;;34.67;18.17;;;;;;;;;;5096406;28;20020;-69
2022/01/05 00:25:36;;;;;;;34.95;20.85;;;;;;;;;;5096822;28;20016;-68
2022/01/05 00:28:03;;;;;;;36.30;19.15;;;;;;;;;;5096756;28;20468;-69
2022/01/05 00:30:29;;;;;;;31.05;17.65;;;;;;;;;;5096362;28;20024;-69
2022/01/05 00:32:55;;;;;;;30.63;16.63;;;;;;;;;;5096808;28;20031;-69
2022/01/05 00:35:21;;;;;;;36.30;19.52;;;;;;;;;;5095074;28;20170;-68
2022/01/05 00:37:47;;;;;;;32.60;19.05;;;;;;;;;;5094844;28;20024;-68
2022/01/05 00:40:14;;;;;;;41.67;21.00;;;;;;;;;;5096812;28;20031;-68
2022/01/05 00:42:40;;;;;;;30.67;17.17;;;;;;;;;;5096440;28;20069;-68
2022/01/05 00:45:06;;;;;;;36.15;18.90;;;;;;;;;;5096187;28;20098;-68
2022/01/05 00:47:32;;;;;;;30.90;17.67;;;;;;;;;;5096544;28;20024;-68
2022/01/05 00:49:59;;;;;;;38.70;18.85;;;;;;;;;;5096368;28;20028;-69
2022/01/05 00:52:25;;;;;;;35.60;21.33;;;;;;;;;;5095954;28;20016;-68
2022/01/05 00:54:51;;;;;;;29.33;17.08;;;;;;;;;;5096212;28;20500;-69
2022/01/05 00:57:17;;;;;;;32.85;18.30;;;;;;;;;;5096217;28;20488;-69
2022/01/05 00:59:44;;;;;;;26.23;14.98;;;;;;;;;;5094515;28;20111;-68
2022/01/05 01:02:10;;;;;;;17.38;10.85;;;;;;;;;;5096120;28;20063;-68
2022/01/05 01:04:36;;;;;;;19.90;11.63;;;;;;;;;;5096321;28;20426;-70
2022/01/05 01:07:02;;;;;;;22.77;13.38;;;;;;;;;;5095091;28;20027;-67
2022/01/05 01:09:28;;;;;;;19.63;12.57;;;;;;;;;;5095975;28;20035;-68
2022/01/05 01:11:55;;;;;;;18.73;9.88;;;;;;;;;;5096154;28;20027;-68
2022/01/05 01:14:21;;;;;;;19.60;10.57;;;;;;;;;;5095329;28;20063;-68
2022/01/05 01:16:47;;;;;;;19.77;10.70;;;;;;;;;;5095899;28;20020;-68
2022/01/05 01:19:13;;;;;;;18.45;9.55;;;;;;;;;;5095607;28;20020;-68
2022/01/05 01:21:39;;;;;;;19.10;10.32;;;;;;;;;;5095705;28;20016;-68
2022/01/05 01:24:06;;;;;;;19.45;9.55;;;;;;;;;;5095660;28;20473;-69
2022/01/05 01:26:33;;;;;;;18.02;10.82;;;;;;;;;;5095124;28;20043;-69
2022/01/05 01:29:01;;;;;;;14.18;8.02;;;;;;;;;;5095788;28;20025;-69
2022/01/05 01:31:28;;;;;;;18.45;9.20;;;;;;;;;;5095769;28;20091;-68
2022/01/05 01:33:54;;;;;;;13.75;8.43;;;;;;;;;;5095176;28;20093;-69
2022/01/05 01:36:21;;;;;;;16.20;9.35;;;;;;;;;;5095486;28;20149;-69
2022/01/05 01:38:47;;;;;;;16.38;9.18;;;;;;;;;;5095507;28;20016;-68
2022/01/05 01:41:13;;;;;;;17.17;9.77;;;;;;;;;;5095103;28;20020;-69
2022/01/05 01:43:39;;;;;;;18.05;11.23;;;;;;;;;;5095456;28;20043;-70
2022/01/05 01:46:08;;;;;;;17.33;10.57;;;;;;;;;;5094008;28;20028;-69
2022/01/05 01:48:34;;;;;;;15.65;9.63;;;;;;;;;;5094848;28;20099;-68
2022/01/05 01:51:00;;;;;;;20.25;10.15;;;;;;;;;;5095224;28;20039;-68
2022/01/05 01:53:27;;;;;;;17.67;10.40;;;;;;;;;;5095036;28;20388;-68
2022/01/05 01:55:53;;;;;;;25.02;14.05;;;;;;;;;;5094681;28;20064;-68
2022/01/05 01:58:21;;;;;;;24.95;14.73;;;;;;;;;;5094996;28;20024;-69
2022/01/05 02:00:47;;;;;;;30.02;15.55;;;;;;;;;;5094990;28;20032;-69
2022/01/05 02:03:14;;;;;;;43.17;21.65;;;;;;;;;;5094500;28;20028;-68
2022/01/05 02:05:40;;;;;;;47.13;23.98;;;;;;;;;;5095006;28;20090;-68
2022/01/05 02:08:06;;;;;;;36.88;20.90;;;;;;;;;;5094768;28;20024;-68
2022/01/05 02:10:33;;;;;;;42.60;23.13;;;;;;;;;;5094403;28;20066;-68
2022/01/05 02:12:59;;;;;;;39.47;20.88;;;;;;;;;;5094766;28;20020;-68
2022/01/05 02:15:25;;;;;;;34.60;18.52;;;;;;;;;;5092873;28;20545;-68
2022/01/05 02:18:09;;;;;;;38.83;19.60;;;;;;;;;;5094217;28;20020;-68
2022/01/05 02:20:35;;;;;;;49.13;23.02;;;;;;;;;;5094622;28;20023;-68
2022/01/05 02:23:02;;;;;;;44.17;21.20;;;;;;;;;;5094168;28;20422;-68
2022/01/05 02:25:28;;;;;;;36.35;18.20;;;;;;;;;;5094557;28;20031;-68
2022/01/05 02:27:55;;;;;;;32.22;19.13;;;;;;;;;;5094410;28;20026;-68
2022/01/05 02:30:23;;;;;;;26.73;14.77;;;;;;;;;;5093994;28;20501;-68
2022/01/05 02:32:50;;;;;;;29.73;15.20;;;;;;;;;;5093063;28;20020;-68
2022/01/05 02:35:17;;;;;;;28.40;15.23;;;;;;;;;;5094069;28;20097;-68
2022/01/05 02:37:45;;;;;;;22.55;12.98;;;;;;;;;;5093930;28;20024;-68
2022/01/05 02:40:12;;;;;;;22.58;11.20;;;;;;;;;;5094517;28;20024;-68
2022/01/05 02:42:38;;;;;;;18.10;10.73;;;;;;;;;;5094240;28;20020;-68
2022/01/05 02:45:04;;;;;;;15.90;9.20;;;;;;;;;;5093724;28;20383;-68
2022/01/05 02:47:30;;;;;;;20.10;10.00;;;;;;;;;;5094093;28;20102;-68
2022/01/05 02:50:00;;;;;;;17.30;9.52;;;;;;;;;;5094022;28;20526;-68
2022/01/05 02:52:26;;;;;;;17.88;9.18;;;;;;;;;;5092370;28;20020;-68
2022/01/05 02:54:53;;;;;;;17.88;10.60;;;;;;;;;;5093971;28;20477;-68
2022/01/05 02:57:19;;;;;;;14.40;10.30;;;;;;;;;;5093981;28;20024;-68
2022/01/05 02:59:45;;;;;;;16.17;9.32;;;;;;;;;;5093524;28;20044;-69
2022/01/05 03:02:11;;;;;;;19.05;10.68;;;;;;;;;;5092584;28;20468;-69
2022/01/05 03:04:38;;;;;;;22.25;12.45;;;;;;;;;;5093773;28;20054;-69
2022/01/05 03:07:04;;;;;;;19.02;11.38;;;;;;;;;;5092495;28;20472;-69
2022/01/05 03:09:30;;;;;;;20.20;11.30;;;;;;;;;;5093711;28;20036;-69
2022/01/05 03:11:56;;;;;;;18.92;11.07;;;;;;;;;;5093322;28;20044;-69
2022/01/05 03:14:23;;;;;;;17.95;9.98;;;;;;;;;;5093650;28;20031;-69
2022/01/05 03:16:49;;;;;;;16.48;9.63;;;;;;;;;;5093779;28;20428;-69
2022/01/05 03:19:15;;;;;;;21.50;11.23;;;;;;;;;;5093268;28;20031;-69
2022/01/05 03:21:41;;;;;;;25.63;14.05;;;;;;;;;;5093554;28;20484;-68
2022/01/05 03:24:07;;;;;;;24.65;14.40;;;;;;;;;;5093649;28;20028;-68
2022/01/05 03:26:34;;;;;;;29.05;14.75;;;;;;;;;;5093325;28;20030;-69
2022/01/05 03:29:00;;;;;;;28.40;13.00;;;;;;;;;;5092097;28;20463;-68
2022/01/05 03:31:26;;;;;;;24.75;13.05;;;;;;;;;;5093677;28;20024;-69
2022/01/05 03:33:52;;;;;;;22.67;12.20;;;;;;;;;;5091418;28;20062;-69
2022/01/05 03:36:19;;;;;;;20.35;11.55;;;;;;;;;;5092159;28;20490;-68
2022/01/05 03:38:45;;;;;;;23.92;13.23;;;;;;;;;;5093375;28;20028;-69
2022/01/05 03:41:12;;;;;;;19.60;10.30;;;;;;;;;;5092951;28;20051;-68
2022/01/05 03:43:39;;;;;;;22.00;12.60;;;;;;;;;;5093555;28;20026;-68
2022/01/05 03:46:05;;;;;;;21.77;12.05;;;;;;;;;;5093320;28;20028;-69
2022/01/05 03:48:31;;;;;;;29.63;15.13;;;;;;;;;;5092919;28;20357;-69
2022/01/05 03:50:57;;;;;;;28.02;14.90;;;;;;;;;;5093563;28;20072;-69
2022/01/05 03:53:24;;;;;;;28.65;14.95;;;;;;;;;;5093471;28;20028;-69
2022/01/05 03:55:50;;;;;;;20.90;13.05;;;;;;;;;;5092742;28;20039;-69
2022/01/05 03:58:16;;;;;;;26.67;12.95;;;;;;;;;;5093256;28;20035;-71
2022/01/05 04:00:44;;;;;;;22.17;13.02;;;;;;;;;;5093209;28;20028;-69
2022/01/05 04:03:10;;;;;;;21.00;11.60;;;;;;;;;;5092940;28;20465;-69
2022/01/05 04:05:37;;;;;;;27.70;15.45;;;;;;;;;;5093106;28;20024;-69
2022/01/05 04:08:04;;;;;;;28.50;16.35;;;;;;;;;;5091405;28;20023;-68
2022/01/05 04:10:30;;;;;;;25.88;13.82;;;;;;;;;;5093649;28;20032;-68
2022/01/05 04:12:56;;;;;;;26.98;15.50;;;;;;;;;;5093126;28;20016;-68
2022/01/05 04:15:23;;;;;;;23.75;13.10;;;;;;;;;;5092808;28;20078;-69
2022/01/05 04:17:49;;;;;;;31.17;15.18;;;;;;;;;;5093037;28;20024;-69
2022/01/05 04:20:16;;;;;;;26.40;13.90;;;;;;;;;;5091702;28;20028;-68
2022/01/05 04:22:42;;;;;;;23.13;11.75;;;;;;;;;;5092797;28;20384;-68
2022/01/05 04:25:09;;;;;;;19.67;10.88;;;;;;;;;;5092931;28;20020;-68
2022/01/05 04:27:35;;;;;;;19.42;11.60;;;;;;;;;;5092949;28;20024;-68
2022/01/05 04:30:02;;;;;;;21.85;11.82;;;;;;;;;;5092478;28;20388;-69
2022/01/05 04:32:28;;;;;;;23.48;12.15;;;;;;;;;;5093104;28;20024;-68
2022/01/05 04:34:54;;;;;;;23.40;13.60;;;;;;;;;;5092707;28;20170;-69
2022/01/05 04:37:22;;;;;;;26.15;15.23;;;;;;;;;;5092424;28;20411;-69
2022/01/05 04:39:48;;;;;;;28.73;15.30;;;;;;;;;;5092934;28;20530;-69
2022/01/05 04:42:14;;;;;;;25.65;15.52;;;;;;;;;;5094485;28;20024;-69
2022/01/05 04:44:40;;;;;;;26.27;15.05;;;;;;;;;;5096077;28;20020;-68
2022/01/05 04:47:08;;;;;;;29.23;15.05;;;;;;;;;;5096930;28;20457;-69
2022/01/05 04:49:34;;;;;;;24.73;13.73;;;;;;;;;;5095095;28;20028;-69
2022/01/05 04:52:00;;;;;;;24.13;14.98;;;;;;;;;;5095996;28;20062;-69
2022/01/05 04:54:27;;;;;;;25.50;14.18;;;;;;;;;;5096273;28;20027;-69
2022/01/05 04:56:53;;;;;;;24.55;13.40;;;;;;;;;;5096573;28;20058;-69
2022/01/05 04:59:19;;;;;;;21.15;11.63;;;;;;;;;;5095842;28;20545;-69
2022/01/05 05:01:45;;;;;;;43.70;18.85;;;;;;;;;;5094962;28;20017;-68
2022/01/05 05:04:11;;;;;;;37.95;17.60;;;;;;;;;;5095636;28;20028;-69
2022/01/05 05:06:37;;;;;;;38.88;15.80;;;;;;;;;;5096252;28;20058;-69
2022/01/05 05:09:04;;;;;;;30.90;15.75;;;;;;;;;;5096149;28;20425;-69
2022/01/05 05:11:30;;;;;;;46.55;20.98;;;;;;;;;;5094306;28;20089;-69
2022/01/05 05:13:56;;;;;;;47.80;22.98;;;;;;;;;;5096173;28;20023;-69
2022/01/05 05:16:22;;;;;;;41.40;19.30;;;;;;;;;;5096087;28;20024;-69
2022/01/05 05:18:49;;;;;;;35.78;18.30;;;;;;;;;;5095378;28;20388;-69
2022/01/05 05:21:15;;;;;;;33.78;16.52;;;;;;;;;;5096008;28;20020;-68
2022/01/05 05:23:41;;;;;;;29.77;15.43;;;;;;;;;;5094512;28;20509;-68
2022/01/05 05:26:07;;;;;;;33.42;17.15;;;;;;;;;;5095176;28;20109;-69
2022/01/05 05:28:33;;;;;;;37.22;19.25;;;;;;;;;;5095684;28;20047;-69
2022/01/05 05:30:59;;;;;;;37.63;19.67;;;;;;;;;;5095627;28;20035;-69
2022/01/05 05:33:26;;;;;;;37.05;18.85;;;;;;;;;;5094933;28;20057;-68
2022/01/05 05:35:52;;;;;;;30.60;16.05;;;;;;;;;;5095654;28;20067;-69
2022/01/05 05:38:19;;;;;;;26.33;13.63;;;;;;;;;;5095662;28;20024;-69
2022/01/05 05:40:46;;;;;;;24.58;14.60;;;;;;;;;;5095069;28;20031;-69
2022/01/05 05:43:12;;;;;;;23.75;13.85;;;;;;;;;;5095357;28;20020;-69
2022/01/05 05:45:38;;;;;;;27.00;13.18;;;;;;;;;;5094085;28;20047;-69
2022/01/05 05:48:05;;;;;;;23.73;13.70;;;;;;;;;;5094919;28;20074;-69
2022/01/05 05:50:31;;;;;;;25.58;14.65;;;;;;;;;;5095294;28;20414;-69
2022/01/05 05:52:58;;;;;;;39.67;22.02;;;;;;;;;;5095264;28;20428;-70
2022/01/05 05:55:24;;;;;;;40.47;23.92;;;;;;;;;;5094657;28;20377;-69
2022/01/05 05:57:50;;;;;;;46.60;23.30;;;;;;;;;;5095203;28;20406;-69
2022/01/05 06:00:16;;;;;;;58.03;32.17;;;;;;;;;;5095310;28;20035;-69
2022/01/05 06:02:43;;;;;;;81.38;41.03;;;;;;;;;;5094533;28;20024;-68
2022/01/05 06:05:09;;;;;;;102.63;49.97;;;;;;;;;;5094910;28;20020;-68
2022/01/05 06:07:35;;;;;;;106.20;51.33;;;;;;;;;;5094410;28;20490;-69
2022/01/05 06:10:01;;;;;;;101.00;50.40;;;;;;;;;;5094908;28;20032;-69
2022/01/05 06:12:28;;;;;;;86.10;44.47;;;;;;;;;;5094734;28;20027;-69
2022/01/05 06:14:54;;;;;;;80.13;44.47;;;;;;;;;;5094651;28;20535;-69
2022/01/05 06:17:20;;;;;;;84.20;46.78;;;;;;;;;;5093303;28;20024;-69
2022/01/05 06:19:46;;;;;;;89.95;46.38;;;;;;;;;;5093315;28;20103;-69
2022/01/05 06:22:13;;;;;;;78.00;40.75;;;;;;;;;;5094217;28;20031;-69
2022/01/05 06:24:40;;;;;;;69.90;39.70;;;;;;;;;;5094514;28;20051;-69
2022/01/05 06:27:09;;;;;;;70.13;37.53;;;;;;;;;;5094666;28;20017;-68
2022/01/05 06:29:36;;;;;;;67.32;36.38;;;;;;;;;;5094028;28;20024;-69
2022/01/05 06:32:03;;;;;;;57.22;30.58;;;;;;;;;;5093165;28;20051;-69
2022/01/05 06:34:29;;;;;;;85.07;43.13;;;;;;;;;;5094044;28;20044;-69
2022/01/05 06:36:55;;;;;;;99.13;50.88;;;;;;;;;;5093992;28;20024;-68
2022/01/05 06:39:22;;;;;;;128.88;61.25;;;;;;;;;;5094285;28;20091;-68
2022/01/05 06:41:48;;;;;;;152.00;70.97;;;;;;;;;;5094627;28;20384;-69
2022/01/05 06:44:14;;;;;;;111.50;54.90;;;;;;;;;;5092490;28;20032;-69
2022/01/05 06:46:40;;;;;;;101.18;52.25;;;;;;;;;;5094149;28;20020;-69
2022/01/05 06:49:06;;;;;;;113.32;61.60;;;;;;;;;;5094097;28;20051;-69
2022/01/05 06:51:32;;;;;;;77.85;41.17;;;;;;;;;;5093619;28;20020;-69
2022/01/05 06:53:59;;;;;;;56.47;32.88;;;;;;;;;;5094334;28;20024;-69
2022/01/05 06:56:25;;;;;;;59.25;32.58;;;;;;;;;;5093911;28;20016;-69
2022/01/05 06:58:51;;;;;;;56.80;29.27;;;;;;;;;;5093548;28;20020;-68
2022/01/05 07:01:17;;;;;;;48.40;29.77;;;;;;;;;;5093882;28;20024;-69
2022/01/05 07:03:43;;;;;;;43.63;27.13;;;;;;;;;;5093392;28;20020;-68
2022/01/05 07:06:10;;;;;;;50.63;29.52;;;;;;;;;;5093385;28;20020;-68
2022/01/05 07:08:36;;;;;;;59.00;31.17;;;;;;;;;;5093776;28;20028;-69
2022/01/05 07:11:02;;;;;;;70.40;34.60;;;;;;;;;;5093599;28;20024;-68
2022/01/05 07:13:28;;;;;;;73.13;37.72;;;;;;;;;;5093671;28;20465;-69
2022/01/05 07:15:54;;;;;;;63.03;34.90;;;;;;;;;;5093797;28;20081;-68
2022/01/05 07:18:21;;;;;;;73.13;39.45;;;;;;;;;;5093462;28;20028;-69
2022/01/05 07:20:47;;;;;;;95.38;49.85;;;;;;;;;;5092348;28;20028;-69
2022/01/05 07:23:13;;;;;;;80.88;45.60;;;;;;;;;;5093823;28;20128;-69
2022/01/05 07:25:39;;;;;;;82.57;46.15;;;;;;;;;;5093145;28;20031;-69
2022/01/05 07:28:05;;;;;;;63.45;39.05;;;;;;;;;;5093500;28;20472;-68
2022/01/05 07:30:32;;;;;;;59.45;35.60;;;;;;;;;;5093433;28;20454;-68
2022/01/05 07:32:58;;;;;;;58.67;33.47;;;;;;;;;;5093044;28;20100;-69
2022/01/05 07:35:24;;;;;;;65.43;39.53;;;;;;;;;;5093160;28;20064;-68
2022/01/05 07:37:50;;;;;;;56.38;34.38;;;;;;;;;;5093411;28;20024;-68
2022/01/05 07:40:16;;;;;;;63.03;38.58;;;;;;;;;;5092797;28;20031;-68
2022/01/05 07:42:43;;;;;;;60.42;36.75;;;;;;;;;;5093312;28;20529;-69
2022/01/05 07:45:09;;;;;;;49.40;31.70;;;;;;;;;;5093279;28;20028;-68
2022/01/05 07:47:36;;;;;;;54.65;32.47;;;;;;;;;;5093021;28;20388;-69
2022/01/05 07:50:03;;;;;;;59.88;38.08;;;;;;;;;;5093558;28;20071;-70
2022/01/05 07:52:29;;;;;;;61.60;38.40;;;;;;;;;;5093187;28;20044;-69
2022/01/05 07:54:55;;;;;;;56.35;33.28;;;;;;;;;;5092715;28;20464;-69
2022/01/05 07:57:22;;;;;;;57.83;36.97;;;;;;;;;;5093360;28;20035;-69
2022/01/05 07:59:48;;;;;;;71.78;42.15;;;;;;;;;;5093162;28;20020;-68
2022/01/05 08:02:14;;;;;;;71.88;47.00;;;;;;;;;;5092803;28;20016;-68
2022/01/05 08:04:40;;;;;;;69.05;41.75;;;;;;;;;;5093092;28;20032;-68
2022/01/05 08:07:06;;;;;;;73.32;45.97;;;;;;;;;;5085924;28;20043;-69
2022/01/05 08:09:33;;;;;;;77.88;45.00;;;;;;;;;;5092740;28;20099;-71
2022/01/05 08:11:59;;;;;;;112.00;69.43;;;;;;;;;;5087314;28;20017;-70
2022/01/05 08:14:25;;;;;;;111.18;64.50;;;;;;;;;;5091877;28;20104;-73
2022/01/05 08:16:51;;;;;;;106.45;66.10;;;;;;;;;;5092505;28;20036;-70
2022/01/05 08:19:18;;;;;;;100.60;62.65;;;;;;;;;;5096409;28;20020;-72
2022/01/05 08:21:44;;;;;;;119.22;71.60;;;;;;;;;;5093653;28;20107;-69
2022/01/05 08:24:11;;;;;;;120.55;71.15;;;;;;;;;;5094609;28;20024;-72
2022/01/05 08:26:38;;;;;;;102.30;67.03;;;;;;;;;;5094892;28;20024;-72
2022/01/05 08:29:04;;;;;;;116.53;72.45;;;;;;;;;;5095570;28;20020;-69
2022/01/05 08:31:30;;;;;;;108.75;73.72;;;;;;;;;;5095987;28;20456;-71
2022/01/05 08:33:59;;;;;;;133.73;81.30;;;;;;;;;;5095537;28;20503;-72
2022/01/05 08:36:25;;;;;;;126.32;68.95;;;;;;;;;;5095068;28;20111;-71
2022/01/05 08:38:52;;;;;;;94.93;56.55;;;;;;;;;;5096105;28;20028;-71
2022/01/05 08:41:19;;;;;;;72.60;45.25;;;;;;;;;;5096144;28;20412;-72
2022/01/05 08:43:45;;;;;;;53.92;34.65;;;;;;;;;;5094918;28;20020;-72
2022/01/05 08:46:12;;;;;;;47.63;29.00;;;;;;;;;;5095180;28;20066;-71
2022/01/05 08:48:40;;;;;;;36.70;25.13;;;;;;;;;;5094738;28;20020;-71
2022/01/05 08:51:07;;;;;;;34.10;21.48;;;;;;;;;;5095241;28;20464;-72
2022/01/05 08:53:33;;;;;;;50.67;26.05;;;;;;;;;;5095871;28;20024;-72
2022/01/05 08:55:59;;;;;;;35.95;25.30;;;;;;;;;;5095908;28;20036;-70
2022/01/05 08:58:25;;;;;;;42.83;26.40;;;;;;;;;;5095598;28;20023;-68
2022/01/05 09:00:52;;;;;;;59.60;39.13;;;;;;;;;;5096028;28;20032;-71
2022/01/05 09:03:18;;;;;;;65.10;40.35;;;;;;;;;;5095528;28;20099;-70
2022/01/05 09:05:44;;;;;;;94.13;57.88;;;;;;;;;;5095694;28;20085;-71
2022/01/05 09:08:11;;;;;;;103.25;59.72;;;;;;;;;;5095756;28;20056;-72
2022/01/05 09:10:37;;;;;;;101.28;61.45;;;;;;;;;;5095224;28;20054;-73
2022/01/05 09:13:04;;;;;;;101.00;57.92;;;;;;;;;;5095716;28;20057;-69
2022/01/05 09:15:32;;;;;;;86.80;54.22;;;;;;;;;;5095563;28;20032;-73
2022/01/05 09:17:58;;;;;;;98.45;54.88;;;;;;;;;;5093922;28;20020;-72
2022/01/05 09:20:25;;;;;;;89.30;54.70;;;;;;;;;;5095630;28;20095;-72
2022/01/05 09:22:51;;;;;;;77.75;48.50;;;;;;;;;;5095587;28;20024;-70
2022/01/05 09:25:18;;;;;;;81.18;47.90;;;;;;;;;;5095195;28;20028;-72
2022/01/05 09:27:45;;;;;;;77.63;46.65;;;;;;;;;;5095217;28;20074;-71
2022/01/05 09:30:12;;;;;;;116.38;68.65;;;;;;;;;;5095232;28;20491;-70
2022/01/05 09:32:39;;;;;;;93.68;55.67;;;;;;;;;;5094911;28;20473;-71
2022/01/05 09:35:06;;;;;;;73.45;45.80;;;;;;;;;;5095086;28;20040;-71
2022/01/05 09:37:37;;;;;;;58.15;38.00;;;;;;;;;;5095333;28;20376;-72
2022/01/05 09:42:49;;;;;;;68.60;44.53;;;;;;;;;;5095438;28;20056;-72
2022/01/05 09:45:15;;;;;;;62.40;41.85;;;;;;;;;;5093898;28;20073;-71
2022/01/05 09:47:56;;;;;;;73.05;46.00;;;;;;;;;;5094529;28;20043;-71
2022/01/05 09:50:24;;;;;;;59.10;38.97;;;;;;;;;;5094938;28;20028;-70
2022/01/05 09:52:50;;;;;;;42.60;27.92;;;;;;;;;;5093213;28;20028;-72
2022/01/05 09:55:17;;;;;;;41.95;26.13;;;;;;;;;;5092748;28;20032;-69
2022/01/05 09:57:44;;;;;;;42.33;26.83;;;;;;;;;;5092806;28;20043;-71
2022/01/05 10:00:11;;;;;;;55.17;33.05;;;;;;;;;;5092830;28;20055;-70
2022/01/05 10:02:38;;;;;;;47.78;31.73;;;;;;;;;;5092799;28;20492;-71
2022/01/05 10:05:05;;;;;;;39.58;26.40;;;;;;;;;;5092737;28;20044;-71
2022/01/05 10:07:31;;;;;;;50.42;33.42;;;;;;;;;;5093124;28;20361;-70
2022/01/05 10:09:58;;;;;;;37.00;23.17;;;;;;;;;;5092111;28;20024;-72
2022/01/05 10:12:24;;;;;;;35.95;21.95;;;;;;;;;;5093633;28;20469;-71
2022/01/05 10:14:50;;;;;;;33.80;22.10;;;;;;;;;;5092847;28;20046;-71
2022/01/05 10:17:23;;;;;;;44.55;27.92;;;;;;;;;;5094525;28;20024;-70
2022/01/05 10:19:55;;;;;;;27.30;18.90;;;;;;;;;;5094557;28;20020;-71
2022/01/05 10:22:27;;;;;;;30.10;18.97;;;;;;;;;;5092820;28;20182;-72
2022/01/05 10:24:56;;;;;;;28.67;18.20;;;;;;;;;;5094374;28;20150;-70
2022/01/05 10:27:24;;;;;;;29.98;17.02;;;;;;;;;;5094317;28;20020;-69
2022/01/05 10:29:51;;;;;;;29.35;18.15;;;;;;;;;;5094036;28;20024;-70
2022/01/05 10:34:20;;;;;;;33.38;19.33;;;;;;;;;;5111183;27;20419;-69
2022/01/05 10:37:47;;;;;;;29.63;18.52;;;;;;;;;;5111154;27;20337;-71
2022/01/05 10:42:12;;;;;;;29.83;16.75;;;;;;;;;;5110532;27;20393;-69
2022/01/05 10:44:41;;;;;;;26.73;18.00;;;;;;;;;;5109739;28;20069;-69
2022/01/05 10:47:25;;;;;;;34.40;20.92;;;;;;;;;;5070829;28;20476;-68
2022/01/05 10:49:51;;;;;;;30.10;19.27;;;;;;;;;;5069096;28;20410;-69
2022/01/05 10:54:22;;;;;;;32.72;19.88;;;;;;;;;;5070857;28;20433;-69
2022/01/05 10:56:49;;;;;;;30.13;18.88;;;;;;;;;;5070015;28;20497;-68
2022/01/05 11:01:33;;;;;;;29.48;18.48;;;;;;;;;;5111345;27;20975;-69
2022/01/05 11:04:00;;;;;;;26.40;16.05;;;;;;;;;;5110558;28;20507;-69
2022/01/05 11:06:26;;;;;;;28.30;18.38;;;;;;;;;;5111152;28;20020;-68
2022/01/05 11:09:00;;;;;;;30.27;20.50;;;;;;;;;;5111092;28;20047;-70
2022/01/05 11:11:37;;;;;;;29.45;18.40;;;;;;;;;;5110291;28;20090;-69
2022/01/05 11:16:50;;;;;;;35.20;21.55;;;;;;;;;;5111312;27;20426;-69
2022/01/05 11:19:17;;;;;;;36.47;22.23;;;;;;;;;;5110922;28;20034;-69
2022/01/05 11:23:42;;;;;;;34.22;22.73;;;;;;;;;;5111298;27;20397;-69
2022/01/05 11:29:35;;;;;;;33.63;19.77;;;;;;;;;;5076651;27;1601189;-68
2022/01/05 11:32:03;;;;;;;36.75;22.85;;;;;;;;;;5110139;28;20103;-68
2022/01/05 11:34:30;;;;;;;34.00;20.80;;;;;;;;;;5092687;28;20432;-69
2022/01/05 11:36:57;;;;;;;34.50;21.23;;;;;;;;;;5110951;28;20541;-69
2022/01/05 11:39:23;;;;;;;36.45;23.05;;;;;;;;;;5110407;28;20020;-69
2022/01/05 11:41:51;;;;;;;30.50;17.77;;;;;;;;;;5110885;28;20419;-68
2022/01/05 11:44:18;;;;;;;24.70;16.05;;;;;;;;;;5110698;28;20043;-69
2022/01/05 11:46:46;;;;;;;30.55;20.10;;;;;;;;;;5110333;28;20024;-69
2022/01/05 11:51:45;;;;;;;32.60;21.27;;;;;;;;;;5109657;27;20447;-71
2022/01/05 11:56:23;;;;;;;28.95;19.25;;;;;;;;;;5110710;27;20437;-70
2022/01/05 12:00:36;;;;;;;28.60;17.80;;;;;;;;;;5110967;27;20904;-68
2022/01/05 12:03:02;;;;;;;34.50;21.00;;;;;;;;;;5111234;28;20369;-68
2022/01/05 12:05:29;;;;;;;30.63;21.00;;;;;;;;;;5111078;28;20476;-69
2022/01/05 12:09:53;;;;;;;34.30;23.15;;;;;;;;;;5111739;27;20415;-69
2022/01/05 12:17:39;;;;;;;41.17;26.63;;;;;;;;;;5112020;27;20397;-69
2022/01/05 12:20:06;;;;;;;36.45;23.70;;;;;;;;;;5111103;28;20500;-68
2022/01/05 12:22:32;;;;;;;55.92;31.02;;;;;;;;;;5111142;28;20333;-68
2022/01/05 12:25:21;;;;;;;38.75;25.33;;;;;;;;;;5111372;27;20388;-70
2022/01/05 12:27:55;;;;;;;70.47;38.22;;;;;;;;;;5110704;28;20081;-69
2022/01/05 12:30:27;;;;;;;53.70;30.52;;;;;;;;;;5111321;28;20080;-69
2022/01/05 12:33:20;;;;;;;43.53;26.20;;;;;;;;;;5111131;28;20024;-69
2022/01/05 12:37:48;;;;;;;40.17;27.88;;;;;;;;;;5111493;27;20934;-70
2022/01/05 12:40:33;;;;;;;47.25;30.42;;;;;;;;;;5111145;28;20024;-70
2022/01/05 12:43:12;;;;;;;70.90;42.45;;;;;;;;;;5110475;28;20484;-70
2022/01/05 12:45:57;;;;;;;44.58;28.58;;;;;;;;;;5110983;28;20027;-70
2022/01/05 12:49:42;;;;;;;54.35;37.22;;;;;;;;;;5110962;27;20393;-70
2022/01/05 12:52:14;;;;;;;60.17;38.35;;;;;;;;;;5111299;28;20114;-70
2022/01/05 12:54:57;;;;;;;58.47;36.30;;;;;;;;;;5111263;28;20020;-70
2022/01/05 12:57:26;;;;;;;64.20;38.60;;;;;;;;;;5110778;28;20066;-70
2022/01/05 12:59:53;;;;;;;73.70;46.30;;;;;;;;;;5111008;28;20048;-69
2022/01/05 13:02:23;;;;;;;76.60;47.70;;;;;;;;;;5110748;28;20549;-69
2022/01/05 13:04:50;;;;;;;64.70;40.97;;;;;;;;;;5111234;28;20012;-69
2022/01/05 13:07:17;;;;;;;67.13;43.28;;;;;;;;;;5110808;28;20107;-69
2022/01/05 13:09:50;;;;;;;64.50;45.28;;;;;;;;;;5110371;28;20078;-70
2022/01/05 13:12:19;;;;;;;67.00;43.60;;;;;;;;;;5111370;28;20406;-70
2022/01/05 13:14:50;;;;;;;61.65;42.03;;;;;;;;;;5110738;28;20430;-69
2022/01/05 13:17:21;;;;;;;66.35;45.47;;;;;;;;;;5108997;28;20027;-71
2022/01/05 13:19:58;;;;;;;71.80;48.85;;;;;;;;;;5111259;28;20051;-70
2022/01/05 13:22:28;;;;;;;67.30;45.53;;;;;;;;;;5111227;28;20027;-70
2022/01/05 13:25:05;;;;;;;71.95;44.53;;;;;;;;;;5110247;28;20027;-68
2022/01/05 13:27:39;;;;;;;72.60;45.28;;;;;;;;;;5110822;28;20041;-70
2022/01/05 13:30:08;;;;;;;72.80;47.30;;;;;;;;;;5110388;28;20035;-69
2022/01/05 13:32:35;;;;;;;61.00;41.45;;;;;;;;;;5110030;28;20384;-72
2022/01/05 13:35:06;;;;;;;57.22;38.15;;;;;;;;;;5110440;28;20024;-69
2022/01/05 13:38:51;;;;;;;46.40;30.48;;;;;;;;;;5091151;27;20944;-70
2022/01/05 13:41:20;;;;;;;41.72;26.75;;;;;;;;;;5090910;28;20024;-71
2022/01/05 13:43:46;;;;;;;36.38;23.92;;;;;;;;;;5089536;28;20074;-69
2022/01/05 13:46:12;;;;;;;37.50;25.20;;;;;;;;;;5090471;28;20025;-69
2022/01/05 13:48:39;;;;;;;31.27;22.58;;;;;;;;;;5090679;28;20020;-70
2022/01/05 13:51:07;;;;;;;37.75;26.13;;;;;;;;;;5090761;28;20100;-70
2022/01/05 13:53:34;;;;;;;34.85;23.15;;;;;;;;;;5090252;28;20023;-69
2022/01/05 13:59:41;;;;;;;70.53;46.60;;;;;;;;;;5111260;27;20396;-71
2022/01/05 14:03:30;;;;;;;39.00;25.90;;;;;;;;;;5112001;27;20900;-69
2022/01/05 14:05:57;;;;;;;32.33;23.58;;;;;;;;;;5111062;28;20541;-68
2022/01/05 14:08:29;;;;;;;35.00;22.88;;;;;;;;;;5111088;28;20111;-69
2022/01/05 14:11:03;;;;;;;27.35;18.17;;;;;;;;;;5111092;28;20019;-70
2022/01/05 14:13:29;;;;;;;31.98;21.70;;;;;;;;;;5110582;28;20020;-69
2022/01/05 14:15:56;;;;;;;35.17;24.00;;;;;;;;;;5111275;28;20024;-69
2022/01/05 14:18:22;;;;;;;30.65;20.05;;;;;;;;;;5110944;28;20024;-70
2022/01/05 14:20:50;;;;;;;23.63;16.95;;;;;;;;;;5109146;28;20031;-69
2022/01/05 14:26:30;;;;;;;26.92;18.15;;;;;;;;;;5111400;27;20396;-68
2022/01/05 14:29:09;;;;;;;38.28;25.30;;;;;;;;;;5090893;27;20397;-69
2022/01/05 14:31:39;;;;;;;42.08;29.02;;;;;;;;;;5090747;28;20036;-70
2022/01/05 14:34:11;;;;;;;43.25;29.13;;;;;;;;;;5090728;28;20025;-70
2022/01/05 14:38:12;;;;;;;39.05;28.58;;;;;;;;;;5111443;27;20480;-69
2022/01/05 14:41:39;;;;;;;47.05;34.00;;;;;;;;;;5070267;28;20485;-68
2022/01/05 14:44:10;;;;;;;52.95;35.97;;;;;;;;;;5070697;28;20089;-69
2022/01/05 14:47:35;;;;;;;54.90;37.15;;;;;;;;;;5111225;27;20396;-69
2022/01/05 14:50:01;;;;;;;68.80;43.70;;;;;;;;;;5110746;28;20034;-70
2022/01/05 14:54:38;;;;;;;208.07;103.85;;;;;;;;;;5111889;27;20396;-68
2022/01/05 14:57:06;;;;;;;128.82;80.47;;;;;;;;;;5110792;28;20102;-69
2022/01/05 15:00:56;;;;;;;126.97;80.57;;;;;;;;;;5092225;27;20720;-70
2022/01/05 15:03:23;;;;;;;125.70;79.70;;;;;;;;;;5090416;28;20028;-68
2022/01/05 15:07:38;;;;;;;148.02;92.22;;;;;;;;;;5111594;27;20392;-69
2022/01/05 15:10:05;;;;;;;168.65;103.95;;;;;;;;;;5109482;28;20027;-69
2022/01/05 15:12:31;;;;;;;153.75;99.28;;;;;;;;;;5111452;28;20031;-69